Time;durP1;ratioP1;P1;durP2;ratioP2;P2;SDS_P1;SDS_P2;PMS_P1;PMS_P2;Temp;Humidity;BMP_temperature;BMP_pressure;BME280_temperature;BME280_humidity;BME280_pressure;Samples;Min_cycle;Max_cycle;Signal;HPM_P1;HPM_P2
2022/06/10 00:00:26;;;;;;;2.00;1.83;;;;;;;;;;5066754;28;20237;-81
2022/06/10 00:02:53;;;;;;;2.50;1.90;;;;;;;;;;5083723;28;20298;-81
2022/06/10 00:05:24;;;;;;;1.93;1.83;;;;;;;;;;5086071;28;20279;-81
2022/06/10 00:07:53;;;;;;;2.00;1.90;;;;;;;;;;5083837;28;20231;-81
2022/06/10 00:10:22;;;;;;;3.83;2.13;;;;;;;;;;5082530;28;20701;-81
2022/06/10 00:12:50;;;;;;;2.03;1.83;;;;;;;;;;5083737;28;20205;-83
2022/06/10 00:15:18;;;;;;;2.27;2.07;;;;;;;;;;5083653;28;20237;-81
2022/06/10 00:17:45;;;;;;;2.23;2.03;;;;;;;;;;5084693;28;20201;-81
2022/06/10 00:20:14;;;;;;;2.03;1.93;;;;;;;;;;5084710;28;20302;-81
2022/06/10 00:22:41;;;;;;;3.30;2.03;;;;;;;;;;5085504;28;20726;-82
2022/06/10 00:25:10;;;;;;;1.93;1.80;;;;;;;;;;5082280;28;20237;-81
2022/06/10 00:27:37;;;;;;;1.80;1.70;;;;;;;;;;5079106;28;20205;-81
2022/06/10 00:30:04;;;;;;;1.90;1.80;;;;;;;;;;5077675;28;20232;-81
2022/06/10 00:32:31;;;;;;;2.20;2.00;;;;;;;;;;5079448;28;20612;-81
2022/06/10 00:34:58;;;;;;;4.20;2.40;;;;;;;;;;5078922;28;20244;-81
2022/06/10 00:37:25;;;;;;;2.43;2.23;;;;;;;;;;5079081;28;20226;-82
2022/06/10 00:39:52;;;;;;;2.47;2.30;;;;;;;;;;5079145;28;20228;-81
2022/06/10 00:42:20;;;;;;;1.90;1.80;;;;;;;;;;5078958;28;20259;-81
2022/06/10 00:44:52;;;;;;;1.63;1.53;;;;;;;;;;5078223;28;20263;-81
2022/06/10 00:47:20;;;;;;;2.27;2.17;;;;;;;;;;5078552;28;20271;-81
2022/06/10 00:49:49;;;;;;;2.07;1.90;;;;;;;;;;5078297;28;20233;-81
2022/06/10 00:52:22;;;;;;;2.03;1.93;;;;;;;;;;5078675;28;20208;-81
2022/06/10 00:54:52;;;;;;;3.50;2.07;;;;;;;;;;5077368;28;20256;-81
2022/06/10 00:57:21;;;;;;;2.03;1.93;;;;;;;;;;5078132;28;20233;-81
2022/06/10 00:59:52;;;;;;;4.17;2.37;;;;;;;;;;5076499;28;20700;-81
2022/06/10 01:02:20;;;;;;;2.20;2.10;;;;;;;;;;5065508;28;20206;-81
2022/06/10 01:04:47;;;;;;;1.60;1.50;;;;;;;;;;5058114;28;20604;-81
2022/06/10 01:07:16;;;;;;;2.27;2.00;;;;;;;;;;5059351;28;20241;-82
2022/06/10 01:09:43;;;;;;;2.40;2.20;;;;;;;;;;5053476;28;20237;-82
2022/06/10 01:12:24;;;;;;;1.77;1.67;;;;;;;;;;5050063;28;20216;-81
2022/06/10 01:15:01;;;;;;;2.83;2.07;;;;;;;;;;5075288;28;20653;-81
2022/06/10 01:17:34;;;;;;;2.20;2.03;;;;;;;;;;5071656;28;20316;-81
2022/06/10 01:20:08;;;;;;;1.90;1.80;;;;;;;;;;5058011;28;20254;-81
2022/06/10 01:22:41;;;;;;;2.30;2.10;;;;;;;;;;5058314;28;20239;-81
2022/06/10 01:25:25;;;;;;;2.30;1.90;;;;;;;;;;5057117;28;20230;-81
2022/06/10 01:27:57;;;;;;;1.83;1.73;;;;;;;;;;5059379;28;20206;-81
2022/06/10 01:30:29;;;;;;;3.17;2.10;;;;;;;;;;5069955;28;20261;-81
2022/06/10 01:33:02;;;;;;;3.00;1.90;;;;;;;;;;5077164;28;20198;-82
2022/06/10 01:35:36;;;;;;;2.20;2.10;;;;;;;;;;5076584;28;20236;-81
2022/06/10 01:38:09;;;;;;;3.00;2.00;;;;;;;;;;5076884;28;20266;-81
2022/06/10 01:40:40;;;;;;;2.13;2.03;;;;;;;;;;5076651;28;20237;-81
2022/06/10 01:43:11;;;;;;;2.80;2.03;;;;;;;;;;5076622;28;20262;-81
2022/06/10 01:45:40;;;;;;;2.20;2.10;;;;;;;;;;5076442;28;20259;-82
2022/06/10 01:48:13;;;;;;;1.97;1.87;;;;;;;;;;5077053;28;20247;-81
2022/06/10 01:50:43;;;;;;;2.57;2.10;;;;;;;;;;5076911;28;20233;-81
2022/06/10 01:53:13;;;;;;;2.33;2.17;;;;;;;;;;5077522;28;20209;-81
2022/06/10 01:55:42;;;;;;;2.43;2.23;;;;;;;;;;5075728;28;20713;-82
2022/06/10 01:58:11;;;;;;;2.57;2.07;;;;;;;;;;5076299;28;20231;-81
2022/06/10 02:00:40;;;;;;;2.20;2.10;;;;;;;;;;5075788;28;20251;-81
2022/06/10 02:03:10;;;;;;;2.50;2.30;;;;;;;;;;5076054;28;20275;-81
2022/06/10 02:05:40;;;;;;;2.27;2.13;;;;;;;;;;5074490;28;20237;-81
2022/06/10 02:08:11;;;;;;;2.07;1.97;;;;;;;;;;5073353;28;20270;-82
2022/06/10 02:10:41;;;;;;;2.63;2.43;;;;;;;;;;5072618;28;20237;-81
2022/06/10 02:13:11;;;;;;;2.47;2.27;;;;;;;;;;5073677;28;20255;-81
2022/06/10 02:15:40;;;;;;;2.73;2.20;;;;;;;;;;5072779;28;20241;-82
2022/06/10 02:18:11;;;;;;;2.30;2.10;;;;;;;;;;5073754;28;20193;-81
2022/06/10 02:20:42;;;;;;;2.23;2.13;;;;;;;;;;5073212;28;20702;-82
2022/06/10 02:23:10;;;;;;;2.17;2.07;;;;;;;;;;5073040;28;20205;-81
2022/06/10 02:25:40;;;;;;;2.30;2.10;;;;;;;;;;5073728;28;20319;-81
2022/06/10 02:28:10;;;;;;;3.77;2.03;;;;;;;;;;5073320;28;20209;-81
2022/06/10 02:30:42;;;;;;;2.00;1.90;;;;;;;;;;5073470;28;20237;-81
2022/06/10 02:33:11;;;;;;;2.10;2.00;;;;;;;;;;5073962;28;20209;-81
2022/06/10 02:35:42;;;;;;;2.50;2.30;;;;;;;;;;5075550;28;20248;-81
2022/06/10 02:38:13;;;;;;;1.93;1.83;;;;;;;;;;5074922;28;20185;-81
2022/06/10 02:40:42;;;;;;;2.10;2.00;;;;;;;;;;5074011;28;20609;-81
2022/06/10 02:43:12;;;;;;;2.10;2.00;;;;;;;;;;5074506;28;20214;-82
2022/06/10 02:45:43;;;;;;;1.97;1.87;;;;;;;;;;5074317;28;20232;-81
2022/06/10 02:48:21;;;;;;;2.30;2.13;;;;;;;;;;5075258;28;20205;-81
2022/06/10 02:50:48;;;;;;;2.50;2.30;;;;;;;;;;5074846;28;20228;-81
2022/06/10 02:53:16;;;;;;;2.70;2.50;;;;;;;;;;5075178;28;20613;-81
2022/06/10 02:55:43;;;;;;;2.40;2.20;;;;;;;;;;5073778;28;20633;-81
2022/06/10 03:01:16;;;;;;;3.53;1.87;;;;;;;;;;5066428;28;20726;-80
2022/06/10 03:03:54;;;;;;;2.00;1.90;;;;;;;;;;5061178;28;20229;-80
2022/06/10 03:06:25;;;;;;;2.10;2.00;;;;;;;;;;5066678;28;20233;-81
2022/06/10 03:08:57;;;;;;;2.20;2.10;;;;;;;;;;5071112;28;20248;-81
2022/06/10 03:11:27;;;;;;;3.07;2.30;;;;;;;;;;5043328;28;20234;-81
2022/06/10 03:14:01;;;;;;;3.10;2.20;;;;;;;;;;5052006;28;20210;-81
2022/06/10 03:16:32;;;;;;;1.93;1.83;;;;;;;;;;5054675;28;20248;-81
2022/06/10 03:19:05;;;;;;;2.27;2.10;;;;;;;;;;5055460;28;20252;-82
2022/06/10 03:21:38;;;;;;;2.60;2.40;;;;;;;;;;5055154;28;20234;-81
2022/06/10 03:24:09;;;;;;;2.77;1.97;;;;;;;;;;5058964;28;20602;-81
2022/06/10 03:26:40;;;;;;;2.33;2.13;;;;;;;;;;5057991;28;20596;-81
2022/06/10 03:29:10;;;;;;;2.37;2.27;;;;;;;;;;5059776;28;20224;-81
2022/06/10 03:31:39;;;;;;;2.30;2.20;;;;;;;;;;5059121;28;20367;-81
2022/06/10 03:34:12;;;;;;;2.53;2.33;;;;;;;;;;5058928;28;20233;-81
2022/06/10 03:36:39;;;;;;;3.53;2.10;;;;;;;;;;5062541;28;20236;-85
2022/06/10 03:39:07;;;;;;;2.20;2.00;;;;;;;;;;5079113;22;20202;-77
2022/06/10 03:41:37;;;;;;;2.63;2.43;;;;;;;;;;5023765;28;20285;-77
2022/06/10 03:44:07;;;;;;;2.13;1.97;;;;;;;;;;5026068;28;20214;-76
2022/06/10 03:46:35;;;;;;;2.57;2.27;;;;;;;;;;5032256;28;20231;-78
2022/06/10 03:49:05;;;;;;;2.50;2.30;;;;;;;;;;5031022;28;20210;-77
2022/06/10 03:51:33;;;;;;;2.73;2.53;;;;;;;;;;5026415;28;20231;-76
2022/06/10 03:54:00;;;;;;;3.43;2.40;;;;;;;;;;5010752;28;20628;-77
2022/06/10 03:56:27;;;;;;;2.37;2.17;;;;;;;;;;5005619;28;20236;-76
2022/06/10 03:58:54;;;;;;;2.63;2.50;;;;;;;;;;4995681;28;20200;-78
2022/06/10 04:01:21;;;;;;;2.07;1.97;;;;;;;;;;4995905;28;20251;-78
2022/06/10 04:03:48;;;;;;;2.83;2.57;;;;;;;;;;4995585;28;20204;-77
2022/06/10 04:06:16;;;;;;;4.67;2.07;;;;;;;;;;4995169;28;20247;-78
2022/06/10 04:08:45;;;;;;;2.30;2.10;;;;;;;;;;4994995;28;20208;-77
2022/06/10 04:11:12;;;;;;;2.40;2.20;;;;;;;;;;4995190;28;20247;-77
2022/06/10 04:13:39;;;;;;;2.80;2.60;;;;;;;;;;4995030;28;20205;-78
2022/06/10 04:16:06;;;;;;;2.40;2.20;;;;;;;;;;4994850;28;20652;-78
2022/06/10 04:18:33;;;;;;;2.70;2.50;;;;;;;;;;4993973;28;20660;-78
2022/06/10 04:21:01;;;;;;;2.73;2.53;;;;;;;;;;5009937;28;20245;-78
2022/06/10 04:23:28;;;;;;;2.43;2.27;;;;;;;;;;5014031;28;20203;-78
2022/06/10 04:25:56;;;;;;;3.23;2.97;;;;;;;;;;5013501;28;20242;-78
2022/06/10 04:28:23;;;;;;;2.70;2.50;;;;;;;;;;5014312;28;20199;-78
2022/06/10 04:30:52;;;;;;;2.37;2.27;;;;;;;;;;5013103;28;20246;-78
2022/06/10 04:33:19;;;;;;;2.47;2.27;;;;;;;;;;5013352;28;20245;-78
2022/06/10 04:35:47;;;;;;;2.40;2.20;;;;;;;;;;5016821;28;20246;-78
2022/06/10 04:38:16;;;;;;;2.90;2.63;;;;;;;;;;5013801;28;20668;-78
2022/06/10 04:40:44;;;;;;;3.30;2.90;;;;;;;;;;5013371;28;20267;-78
2022/06/10 04:43:12;;;;;;;2.87;2.67;;;;;;;;;;5014158;28;20294;-78
2022/06/10 04:45:41;;;;;;;5.57;2.57;;;;;;;;;;5013577;28;20254;-79
2022/06/10 04:48:09;;;;;;;2.90;2.70;;;;;;;;;;5014056;28;20188;-79
2022/06/10 04:50:36;;;;;;;3.10;2.80;;;;;;;;;;5013506;28;20265;-79
2022/06/10 04:53:03;;;;;;;3.20;2.90;;;;;;;;;;5014228;28;20563;-78
2022/06/10 04:55:30;;;;;;;3.23;2.93;;;;;;;;;;5013048;28;20231;-79
2022/06/10 04:57:57;;;;;;;4.70;2.47;;;;;;;;;;5013971;28;20196;-78
2022/06/10 05:00:27;;;;;;;3.57;3.20;;;;;;;;;;5013231;28;20250;-79
2022/06/10 05:02:54;;;;;;;3.20;2.90;;;;;;;;;;5014109;28;20199;-78
2022/06/10 05:05:21;;;;;;;3.43;3.13;;;;;;;;;;5013028;28;20235;-79
2022/06/10 05:07:49;;;;;;;3.77;3.47;;;;;;;;;;5013531;28;20212;-78
2022/06/10 05:10:17;;;;;;;4.57;3.70;;;;;;;;;;5015335;28;20266;-78
2022/06/10 05:12:45;;;;;;;4.10;3.70;;;;;;;;;;5014239;28;20188;-78
2022/06/10 05:15:13;;;;;;;4.37;3.97;;;;;;;;;;5012558;28;20310;-79
2022/06/10 05:17:41;;;;;;;4.57;4.17;;;;;;;;;;5014396;28;20196;-79
2022/06/10 05:20:09;;;;;;;4.23;3.80;;;;;;;;;;5013215;28;20613;-79
2022/06/10 05:22:36;;;;;;;5.07;3.87;;;;;;;;;;5013459;28;20832;-78
2022/06/10 05:25:04;;;;;;;4.87;3.93;;;;;;;;;;5012557;28;20246;-78
2022/06/10 05:27:31;;;;;;;4.47;4.07;;;;;;;;;;5011933;28;20222;-78
2022/06/10 05:29:58;;;;;;;6.40;4.20;;;;;;;;;;5012469;28;20246;-78
2022/06/10 05:32:25;;;;;;;4.77;4.00;;;;;;;;;;5013166;28;20207;-78
2022/06/10 05:34:53;;;;;;;5.87;4.63;;;;;;;;;;5012176;28;20242;-78
2022/06/10 05:37:23;;;;;;;5.33;3.87;;;;;;;;;;5013169;28;20215;-78
2022/06/10 05:39:51;;;;;;;2.80;2.60;;;;;;;;;;5011593;28;20235;-79
2022/06/10 05:42:18;;;;;;;3.10;2.90;;;;;;;;;;5012540;28;20246;-78
2022/06/10 05:44:46;;;;;;;3.53;3.23;;;;;;;;;;5010933;28;20239;-79
2022/06/10 05:47:14;;;;;;;4.50;3.50;;;;;;;;;;5012659;28;20211;-78
2022/06/10 05:49:43;;;;;;;3.33;3.10;;;;;;;;;;5014826;28;20238;-78
2022/06/10 05:52:12;;;;;;;3.50;3.20;;;;;;;;;;5015711;28;20211;-79
2022/06/10 05:54:40;;;;;;;3.60;3.30;;;;;;;;;;5013312;28;20231;-78
2022/06/10 05:57:08;;;;;;;4.60;3.20;;;;;;;;;;5013976;28;20192;-78
2022/06/10 05:59:35;;;;;;;8.27;3.00;;;;;;;;;;5013194;28;20609;-79
2022/06/10 06:02:03;;;;;;;4.93;3.13;;;;;;;;;;5012487;28;20203;-78
2022/06/10 06:04:30;;;;;;;2.90;2.70;;;;;;;;;;5012187;28;20799;-78
2022/06/10 06:06:57;;;;;;;3.17;2.70;;;;;;;;;;5012512;28;20212;-78
2022/06/10 06:09:26;;;;;;;3.17;2.87;;;;;;;;;;5012185;28;20235;-78
2022/06/10 06:11:56;;;;;;;3.03;2.73;;;;;;;;;;5012427;28;20214;-79
2022/06/10 06:14:25;;;;;;;4.53;2.93;;;;;;;;;;5001821;28;20230;-78
2022/06/10 06:16:53;;;;;;;3.37;2.20;;;;;;;;;;5012141;28;20203;-79
2022/06/10 06:19:20;;;;;;;2.60;2.40;;;;;;;;;;5012451;28;20227;-78
2022/06/10 06:21:47;;;;;;;2.80;2.60;;;;;;;;;;5012212;28;20192;-78
2022/06/10 06:24:15;;;;;;;5.87;2.57;;;;;;;;;;5011826;28;20606;-78
2022/06/10 06:26:43;;;;;;;2.80;2.40;;;;;;;;;;5013663;28;20227;-79
2022/06/10 06:29:10;;;;;;;4.67;2.40;;;;;;;;;;5012596;28;20365;-78
2022/06/10 06:31:38;;;;;;;2.50;2.20;;;;;;;;;;5012171;28;20226;-79
2022/06/10 06:34:05;;;;;;;3.57;2.40;;;;;;;;;;5011906;28;20207;-78
2022/06/10 06:36:36;;;;;;;2.77;2.57;;;;;;;;;;5011541;28;20235;-79
2022/06/10 06:39:04;;;;;;;2.10;1.93;;;;;;;;;;5011715;28;20207;-79
2022/06/10 06:41:31;;;;;;;2.53;2.33;;;;;;;;;;5011879;28;20231;-79
2022/06/10 06:44:01;;;;;;;3.63;2.60;;;;;;;;;;5011982;28;20208;-79
2022/06/10 06:46:28;;;;;;;3.67;2.30;;;;;;;;;;5011340;28;20239;-79
2022/06/10 06:48:56;;;;;;;2.25;2.15;;;;;;;;;;5011696;28;20207;-79
2022/06/10 06:51:23;;;;;;;4.63;2.10;;;;;;;;;;5011491;28;20239;-79
2022/06/10 06:53:50;;;;;;;2.53;2.17;;;;;;;;;;5012068;28;20586;-78
2022/06/10 06:56:17;;;;;;;1.90;1.80;;;;;;;;;;5012735;28;20719;-78
2022/06/10 06:58:44;;;;;;;2.75;2.42;;;;;;;;;;5016802;28;20253;-79
2022/06/10 07:01:13;;;;;;;2.47;2.28;;;;;;;;;;5020133;28;20243;-79
2022/06/10 07:03:40;;;;;;;3.33;2.33;;;;;;;;;;5019773;28;20211;-79
2022/06/10 07:06:07;;;;;;;1.98;1.85;;;;;;;;;;5019927;28;20691;-80
2022/06/10 07:08:34;;;;;;;1.92;1.83;;;;;;;;;;5019895;28;20206;-79
2022/06/10 07:11:02;;;;;;;2.20;2.03;;;;;;;;;;5019025;28;20817;-78
2022/06/10 07:13:29;;;;;;;5.85;2.20;;;;;;;;;;5016559;28;20207;-79
2022/06/10 07:15:57;;;;;;;1.88;1.77;;;;;;;;;;5019093;28;20238;-79
2022/06/10 07:18:26;;;;;;;3.38;2.15;;;;;;;;;;5020377;28;20256;-80
2022/06/10 07:20:53;;;;;;;3.40;2.17;;;;;;;;;;5020727;28;20266;-80
2022/06/10 07:23:20;;;;;;;1.90;1.80;;;;;;;;;;5021448;28;20212;-80
2022/06/10 07:25:48;;;;;;;2.13;1.42;;;;;;;;;;5018108;28;20239;-79
2022/06/10 07:28:15;;;;;;;3.05;1.55;;;;;;;;;;5016948;28;20207;-79
2022/06/10 07:30:43;;;;;;;1.85;1.75;;;;;;;;;;5017128;28;20234;-77
2022/06/10 07:33:10;;;;;;;1.67;1.58;;;;;;;;;;5016670;28;20211;-78
2022/06/10 07:35:39;;;;;;;2.15;1.67;;;;;;;;;;5016715;28;20231;-79
2022/06/10 07:38:07;;;;;;;2.03;1.63;;;;;;;;;;5021983;28;20195;-79
2022/06/10 07:43:20;;;;;;;1.95;1.40;;;;;;;;;;5018311;28;20190;-78
2022/06/10 07:45:48;;;;;;;1.83;1.70;;;;;;;;;;5016392;28;20243;-78
2022/06/10 07:48:15;;;;;;;1.88;1.52;;;;;;;;;;5016898;28;20211;-79
2022/06/10 07:50:44;;;;;;;1.83;1.70;;;;;;;;;;5017601;28;20235;-80
2022/06/10 07:53:12;;;;;;;1.25;1.25;;;;;;;;;;5015156;28;20203;-78
2022/06/10 07:55:40;;;;;;;2.13;1.50;;;;;;;;;;5013912;28;20965;-77
2022/06/10 07:58:07;;;;;;;2.22;1.42;;;;;;;;;;5015426;28;20210;-78
2022/06/10 08:00:35;;;;;;;1.50;1.20;;;;;;;;;;5014309;28;20239;-78
2022/06/10 08:03:02;;;;;;;1.70;1.60;;;;;;;;;;5014500;28;20594;-77
2022/06/10 08:05:29;;;;;;;1.50;1.40;;;;;;;;;;5013911;28;20239;-77
2022/06/10 08:07:58;;;;;;;1.40;1.30;;;;;;;;;;5013617;28;20303;-77
2022/06/10 08:10:26;;;;;;;2.30;1.80;;;;;;;;;;5017636;28;20239;-78
2022/06/10 08:12:54;;;;;;;1.52;1.38;;;;;;;;;;5027536;28;20367;-77
2022/06/10 08:15:21;;;;;;;1.30;1.27;;;;;;;;;;5021442;28;20231;-78
2022/06/10 08:17:49;;;;;;;1.27;1.17;;;;;;;;;;5014077;28;20223;-77
2022/06/10 08:20:19;;;;;;;0.90;0.90;;;;;;;;;;5014212;28;20317;-78
2022/06/10 08:22:45;;;;;;;2.60;1.00;;;;;;;;;;5010486;28;20207;-78
2022/06/10 08:25:14;;;;;;;1.50;1.30;;;;;;;;;;5005893;28;20238;-78
2022/06/10 08:27:42;;;;;;;1.42;1.10;;;;;;;;;;5012844;28;20195;-78
2022/06/10 08:30:10;;;;;;;2.13;1.55;;;;;;;;;;5013044;28;20297;-78
2022/06/10 08:32:37;;;;;;;1.55;1.30;;;;;;;;;;5013167;28;20211;-78
2022/06/10 08:35:06;;;;;;;1.45;1.35;;;;;;;;;;5011917;28;21389;-78
2022/06/10 08:37:33;;;;;;;1.10;1.00;;;;;;;;;;5012576;28;20241;-78
2022/06/10 08:40:00;;;;;;;1.60;1.20;;;;;;;;;;5013082;28;20247;-78
2022/06/10 08:42:36;;;;;;;1.40;1.30;;;;;;;;;;5013068;28;20218;-79
2022/06/10 08:45:08;;;;;;;1.20;1.10;;;;;;;;;;5012471;28;20289;-78
2022/06/10 08:47:37;;;;;;;1.80;1.50;;;;;;;;;;5013049;28;20231;-78
2022/06/10 08:50:20;;;;;;;1.40;1.05;;;;;;;;;;5012488;28;20249;-79
2022/06/10 08:52:53;;;;;;;2.90;1.10;;;;;;;;;;5013152;28;20262;-78
2022/06/10 08:55:27;;;;;;;2.50;1.38;;;;;;;;;;5012644;28;20235;-78
2022/06/10 08:57:57;;;;;;;1.20;1.10;;;;;;;;;;5013412;28;20648;-78
2022/06/10 09:00:26;;;;;;;1.40;1.30;;;;;;;;;;5013505;28;20289;-79
2022/06/10 09:02:56;;;;;;;2.60;1.20;;;;;;;;;;5012876;28;20211;-78
2022/06/10 09:05:27;;;;;;;1.88;1.00;;;;;;;;;;5021596;28;20227;-78
2022/06/10 09:07:56;;;;;;;1.50;1.10;;;;;;;;;;5012882;28;20223;-79
2022/06/10 09:10:26;;;;;;;1.35;0.90;;;;;;;;;;4993074;28;20251;-78
2022/06/10 09:13:06;;;;;;;0.88;0.85;;;;;;;;;;5002552;28;20602;-78
2022/06/10 09:15:34;;;;;;;1.42;1.10;;;;;;;;;;5006560;28;20255;-78
2022/06/10 09:18:04;;;;;;;1.33;1.00;;;;;;;;;;5012995;28;20204;-78
2022/06/10 09:20:33;;;;;;;2.63;1.13;;;;;;;;;;5012444;28;20247;-79
2022/06/10 09:23:03;;;;;;;1.13;0.60;;;;;;;;;;5013468;28;20215;-78
2022/06/10 09:25:33;;;;;;;0.85;0.77;;;;;;;;;;5014497;28;20258;-79
2022/06/10 09:28:03;;;;;;;2.40;0.90;;;;;;;;;;5015234;28;20203;-79
2022/06/10 09:30:33;;;;;;;1.40;1.00;;;;;;;;;;5017246;28;20243;-78
2022/06/10 09:33:03;;;;;;;2.15;0.88;;;;;;;;;;5016002;28;20719;-78
2022/06/10 09:35:33;;;;;;;1.13;0.70;;;;;;;;;;5016710;28;20723;-78
2022/06/10 09:38:03;;;;;;;1.20;0.88;;;;;;;;;;5017615;28;20660;-79
2022/06/10 09:40:36;;;;;;;0.65;0.65;;;;;;;;;;5017371;28;20245;-78
2022/06/10 09:43:12;;;;;;;0.73;0.70;;;;;;;;;;5017232;28;20207;-78
2022/06/10 09:45:43;;;;;;;0.80;0.80;;;;;;;;;;5017699;28;20230;-78
2022/06/10 09:48:17;;;;;;;0.47;0.47;;;;;;;;;;5018239;28;20207;-79
2022/06/10 09:50:50;;;;;;;0.63;0.63;;;;;;;;;;5018372;28;20245;-79
2022/06/10 09:53:25;;;;;;;0.80;0.65;;;;;;;;;;5015795;28;20237;-79
2022/06/10 09:55:58;;;;;;;0.60;0.60;;;;;;;;;;5015785;28;20234;-79
2022/06/10 09:58:44;;;;;;;1.70;0.70;;;;;;;;;;5017207;28;20207;-79
2022/06/10 10:01:14;;;;;;;0.73;0.73;;;;;;;;;;5011076;28;20235;-79
2022/06/10 10:03:54;;;;;;;2.15;1.10;;;;;;;;;;5010067;28;20207;-79
2022/06/10 10:06:27;;;;;;;0.77;0.55;;;;;;;;;;5047845;22;20697;-80
2022/06/10 10:08:59;;;;;;;0.75;0.75;;;;;;;;;;5042865;28;20194;-80
2022/06/10 10:11:30;;;;;;;2.38;0.93;;;;;;;;;;5052635;28;20754;-80
2022/06/10 10:14:03;;;;;;;0.75;0.57;;;;;;;;;;5051123;28;20196;-81
2022/06/10 10:16:37;;;;;;;0.65;0.65;;;;;;;;;;5052825;28;20317;-80
2022/06/10 10:19:13;;;;;;;1.48;0.90;;;;;;;;;;5052485;28;20272;-80
2022/06/10 10:21:45;;;;;;;0.68;0.68;;;;;;;;;;5051941;28;20252;-80
2022/06/10 10:24:16;;;;;;;0.63;0.63;;;;;;;;;;5050735;28;20209;-80
2022/06/10 10:26:44;;;;;;;1.25;0.82;;;;;;;;;;5051407;28;20234;-79
2022/06/10 10:29:15;;;;;;;0.73;0.65;;;;;;;;;;5053037;28;20202;-81
2022/06/10 10:31:45;;;;;;;0.60;0.52;;;;;;;;;;5051886;28;20197;-81
2022/06/10 10:34:18;;;;;;;0.77;0.60;;;;;;;;;;5051026;28;20190;-80
2022/06/10 10:36:50;;;;;;;0.50;0.50;;;;;;;;;;5051852;28;20706;-80
2022/06/10 10:39:25;;;;;;;0.52;0.52;;;;;;;;;;5051815;28;20213;-79
2022/06/10 10:41:53;;;;;;;1.17;0.95;;;;;;;;;;5045650;28;20297;-79
2022/06/10 10:44:28;;;;;;;0.88;0.52;;;;;;;;;;5030536;28;20210;-79
2022/06/10 10:47:00;;;;;;;1.35;0.70;;;;;;;;;;5050807;28;20229;-79
2022/06/10 10:49:29;;;;;;;0.98;0.88;;;;;;;;;;5050702;28;20202;-80
2022/06/10 10:51:57;;;;;;;0.85;0.70;;;;;;;;;;5051130;28;20225;-81
2022/06/10 10:54:26;;;;;;;1.27;0.57;;;;;;;;;;5050122;28;20213;-80
2022/06/10 10:56:54;;;;;;;0.90;0.70;;;;;;;;;;5050941;28;20222;-80
2022/06/10 10:59:26;;;;;;;1.33;0.60;;;;;;;;;;5051279;28;20229;-79
2022/06/10 11:01:55;;;;;;;1.55;1.00;;;;;;;;;;5037211;28;20231;-79
2022/06/10 11:04:27;;;;;;;0.85;0.82;;;;;;;;;;5020135;28;20645;-79
2022/06/10 11:06:59;;;;;;;1.65;0.52;;;;;;;;;;5026899;28;20222;-79
2022/06/10 11:09:27;;;;;;;2.20;0.70;;;;;;;;;;5030967;28;20266;-81
2022/06/10 11:11:55;;;;;;;0.60;0.60;;;;;;;;;;5031368;28;20210;-80
2022/06/10 11:14:24;;;;;;;0.68;0.68;;;;;;;;;;5030483;28;20211;-79
2022/06/10 11:17:02;;;;;;;3.15;0.50;;;;;;;;;;5030733;28;20242;-81
2022/06/10 11:19:44;;;;;;;1.10;0.80;;;;;;;;;;5030670;28;20293;-81
2022/06/10 11:22:17;;;;;;;3.42;0.80;;;;;;;;;;5029112;28;20895;-79
2022/06/10 11:24:46;;;;;;;0.90;0.65;;;;;;;;;;5030706;28;20254;-80
2022/06/10 11:27:21;;;;;;;0.70;0.50;;;;;;;;;;5031923;28;20605;-80
2022/06/10 11:29:58;;;;;;;0.82;0.57;;;;;;;;;;5030372;28;20234;-81
2022/06/10 11:32:27;;;;;;;0.47;0.43;;;;;;;;;;5033001;28;20237;-80
2022/06/10 11:34:58;;;;;;;0.90;0.70;;;;;;;;;;5032924;28;20238;-81
2022/06/10 11:37:32;;;;;;;0.73;0.57;;;;;;;;;;5036092;28;20234;-81
2022/06/10 11:40:03;;;;;;;0.88;0.57;;;;;;;;;;5035542;28;20230;-82
2022/06/10 11:42:34;;;;;;;1.45;0.60;;;;;;;;;;5033382;28;20202;-84
2022/06/10 11:45:04;;;;;;;0.70;0.70;;;;;;;;;;5034497;28;20239;-83
2022/06/10 11:47:35;;;;;;;0.40;0.40;;;;;;;;;;5036791;28;20238;-84
2022/06/10 11:50:04;;;;;;;1.23;0.60;;;;;;;;;;5033361;28;20238;-83
2022/06/10 11:52:33;;;;;;;1.15;0.70;;;;;;;;;;5034624;28;20211;-84
2022/06/10 11:55:05;;;;;;;0.75;0.70;;;;;;;;;;5038977;28;20234;-83
2022/06/10 12:00:23;;;;;;;1.30;0.90;;;;;;;;;;5037926;28;20240;-81
2022/06/10 12:02:59;;;;;;;1.13;0.75;;;;;;;;;;5035014;28;20215;-82
2022/06/10 12:05:28;;;;;;;1.77;0.75;;;;;;;;;;5036558;28;20775;-80
2022/06/10 12:08:01;;;;;;;1.35;0.95;;;;;;;;;;5036738;28;20218;-83
2022/06/10 12:10:30;;;;;;;1.02;0.95;;;;;;;;;;5037422;28;20235;-81
2022/06/10 12:12:58;;;;;;;1.13;1.02;;;;;;;;;;5042267;28;20221;-83
2022/06/10 12:15:26;;;;;;;2.17;0.88;;;;;;;;;;5038154;28;20234;-83
2022/06/10 12:17:57;;;;;;;0.60;0.60;;;;;;;;;;5039661;28;20203;-81
2022/06/10 12:20:31;;;;;;;1.73;0.70;;;;;;;;;;5036820;28;20241;-82
2022/06/10 12:22:58;;;;;;;0.50;0.50;;;;;;;;;;5033542;28;20217;-79
2022/06/10 12:25:28;;;;;;;1.25;0.80;;;;;;;;;;5034658;28;20238;-80
2022/06/10 12:27:59;;;;;;;0.70;0.70;;;;;;;;;;5032431;28;20654;-80
2022/06/10 12:30:29;;;;;;;0.60;0.60;;;;;;;;;;5037843;28;20230;-80
2022/06/10 12:33:00;;;;;;;1.65;0.85;;;;;;;;;;5034645;28;20203;-81
2022/06/10 12:35:31;;;;;;;2.30;0.93;;;;;;;;;;5035525;28;20245;-80
2022/06/10 12:38:00;;;;;;;0.60;0.60;;;;;;;;;;5037753;28;20233;-82
2022/06/10 12:40:31;;;;;;;1.10;0.82;;;;;;;;;;5036448;28;20234;-80
2022/06/10 12:43:00;;;;;;;0.60;0.52;;;;;;;;;;5033688;28;20284;-83
2022/06/10 12:45:29;;;;;;;1.13;0.60;;;;;;;;;;5035897;28;20243;-80
2022/06/10 12:47:58;;;;;;;0.55;0.55;;;;;;;;;;5034400;28;20261;-80
2022/06/10 12:50:28;;;;;;;0.70;0.70;;;;;;;;;;5038532;28;20261;-80
2022/06/10 12:53:03;;;;;;;0.90;0.70;;;;;;;;;;5034482;28;20836;-81
2022/06/10 12:55:33;;;;;;;1.45;0.70;;;;;;;;;;5031059;28;20241;-80
2022/06/10 12:58:00;;;;;;;1.02;0.88;;;;;;;;;;5035208;28;20207;-82
2022/06/10 13:00:28;;;;;;;1.35;0.90;;;;;;;;;;5037212;28;20610;-80
2022/06/10 13:02:57;;;;;;;1.25;1.15;;;;;;;;;;5036525;28;20206;-81
2022/06/10 13:05:27;;;;;;;0.73;0.73;;;;;;;;;;5041005;28;20740;-80
2022/06/10 13:07:55;;;;;;;1.58;0.88;;;;;;;;;;5035378;28;20254;-81
2022/06/10 13:10:43;;;;;;;0.65;0.65;;;;;;;;;;5037088;28;20702;-81
2022/06/10 13:13:11;;;;;;;0.85;0.77;;;;;;;;;;5040086;28;20210;-81
2022/06/10 13:15:39;;;;;;;1.25;0.90;;;;;;;;;;5035698;28;20237;-81
2022/06/10 13:18:07;;;;;;;2.47;1.48;;;;;;;;;;5038541;28;20203;-83
2022/06/10 13:20:40;;;;;;;1.27;0.93;;;;;;;;;;5038142;28;20726;-80
2022/06/10 13:23:15;;;;;;;1.27;0.82;;;;;;;;;;5036232;28;20858;-83
2022/06/10 13:25:43;;;;;;;4.25;1.13;;;;;;;;;;5036676;28;20241;-83
2022/06/10 13:28:14;;;;;;;1.00;0.80;;;;;;;;;;5040238;28;20235;-81
2022/06/10 13:30:42;;;;;;;1.38;1.05;;;;;;;;;;5034192;28;20382;-81
2022/06/10 13:33:11;;;;;;;1.42;1.00;;;;;;;;;;5039699;28;20206;-81
2022/06/10 13:35:49;;;;;;;1.13;0.80;;;;;;;;;;5037822;28;20230;-80
2022/06/10 13:38:19;;;;;;;1.52;0.70;;;;;;;;;;5041047;28;20208;-82
2022/06/10 13:40:50;;;;;;;1.70;1.17;;;;;;;;;;5038684;28;20242;-82
2022/06/10 13:43:21;;;;;;;1.65;0.88;;;;;;;;;;5035781;28;20199;-84
2022/06/10 13:45:48;;;;;;;1.95;1.27;;;;;;;;;;5034405;28;20245;-84
2022/06/10 13:48:16;;;;;;;2.25;0.80;;;;;;;;;;5035934;28;20230;-83
2022/06/10 13:51:10;;;;;;;1.13;1.00;;;;;;;;;;5037103;28;20234;-84
2022/06/10 13:53:39;;;;;;;1.13;1.02;;;;;;;;;;5044582;28;20206;-82
2022/06/10 13:56:08;;;;;;;1.48;0.90;;;;;;;;;;5042438;28;20611;-84
2022/06/10 13:58:36;;;;;;;0.85;0.80;;;;;;;;;;5040370;28;20256;-82
2022/06/10 14:01:06;;;;;;;1.75;1.17;;;;;;;;;;5038783;28;20260;-83
2022/06/10 14:03:38;;;;;;;4.40;0.95;;;;;;;;;;5042128;28;20218;-83
2022/06/10 14:06:14;;;;;;;1.98;1.10;;;;;;;;;;5043502;28;20234;-81
2022/06/10 14:08:46;;;;;;;1.77;0.73;;;;;;;;;;5044108;28;20234;-83
2022/06/10 14:11:14;;;;;;;2.03;0.77;;;;;;;;;;5039991;28;20268;-81
2022/06/10 14:13:49;;;;;;;0.80;0.70;;;;;;;;;;5036268;28;20229;-82
2022/06/10 14:16:16;;;;;;;0.73;0.60;;;;;;;;;;5037277;28;20246;-80
2022/06/10 14:18:45;;;;;;;1.83;0.82;;;;;;;;;;5037416;28;20229;-84
2022/06/10 14:21:14;;;;;;;1.02;0.93;;;;;;;;;;5036698;28;20234;-83
2022/06/10 14:23:56;;;;;;;0.80;0.80;;;;;;;;;;5037007;28;20214;-86
2022/06/10 14:26:24;;;;;;;1.58;0.88;;;;;;;;;;5038737;28;20246;-83
2022/06/10 14:28:54;;;;;;;1.17;0.80;;;;;;;;;;5041200;28;20519;-84
2022/06/10 14:31:26;;;;;;;1.27;1.15;;;;;;;;;;5041662;28;20254;-80
2022/06/10 14:33:55;;;;;;;2.20;0.75;;;;;;;;;;5040568;28;20209;-81
2022/06/10 14:36:26;;;;;;;0.70;0.70;;;;;;;;;;5039977;28;20242;-81
2022/06/10 14:39:03;;;;;;;1.20;0.73;;;;;;;;;;5059397;28;20644;-80
2022/06/10 14:41:30;;;;;;;0.90;0.90;;;;;;;;;;5059913;28;20240;-82
2022/06/10 14:43:59;;;;;;;1.95;0.60;;;;;;;;;;5058362;28;20213;-80
2022/06/10 14:46:26;;;;;;;1.23;0.90;;;;;;;;;;5057660;28;20242;-81
2022/06/10 14:48:54;;;;;;;0.93;0.80;;;;;;;;;;5058130;28;20218;-81
2022/06/10 14:51:24;;;;;;;1.58;1.15;;;;;;;;;;5056590;28;20234;-82
2022/06/10 14:53:53;;;;;;;1.08;0.63;;;;;;;;;;5056284;28;20220;-81
2022/06/10 14:56:22;;;;;;;0.98;0.60;;;;;;;;;;5056577;28;20737;-82
2022/06/10 14:58:49;;;;;;;1.38;0.75;;;;;;;;;;5047700;28;20207;-81
2022/06/10 15:01:21;;;;;;;1.55;0.75;;;;;;;;;;5036723;28;20242;-83
2022/06/10 15:03:49;;;;;;;1.90;0.93;;;;;;;;;;5036214;28;20230;-81
2022/06/10 15:06:21;;;;;;;1.42;0.80;;;;;;;;;;5037213;28;20249;-81